sensor_id;sensor_type;location;lat;lon;timestamp;temperature;humidity
15160;DHT22;7680;48.800;9.680;2023-03-26T00:02:28;7.70;99.90
15160;DHT22;7680;48.800;9.680;2023-03-26T00:05:01;7.60;99.90
15160;DHT22;7680;48.800;9.680;2023-03-26T00:07:35;7.50;99.90
15160;DHT22;7680;48.800;9.680;2023-03-26T00:10:08;7.50;99.90
15160;DHT22;7680;48.800;9.680;2023-03-26T00:12:42;7.40;99.90
15160;DHT22;7680;48.800;9.680;2023-03-26T00:15:15;7.30;99.90
15160;DHT22;7680;48.800;9.680;2023-03-26T00:17:50;7.30;99.90
15160;DHT22;7680;48.800;9.680;2023-03-26T00:20:24;7.10;99.90
15160;DHT22;7680;48.800;9.680;2023-03-26T00:22:58;7.00;99.90
15160;DHT22;7680;48.800;9.680;2023-03-26T00:25:33;7.00;99.90
15160;DHT22;7680;48.800;9.680;2023-03-26T00:28:09;6.90;99.90
15160;DHT22;7680;48.800;9.680;2023-03-26T00:30:42;6.90;99.90
15160;DHT22;7680;48.800;9.680;2023-03-26T00:33:16;6.90;99.90
15160;DHT22;7680;48.800;9.680;2023-03-26T00:35:53;6.80;99.90
15160;DHT22;7680;48.800;9.680;2023-03-26T00:38:29;6.80;99.90
15160;DHT22;7680;48.800;9.680;2023-03-26T00:41:05;6.70;99.90
15160;DHT22;7680;48.800;9.680;2023-03-26T00:43:49;6.60;99.90
15160;DHT22;7680;48.800;9.680;2023-03-26T00:46:22;6.60;99.90
15160;DHT22;7680;48.800;9.680;2023-03-26T00:48:57;6.50;99.90
15160;DHT22;7680;48.800;9.680;2023-03-26T00:51:30;6.50;99.90
15160;DHT22;7680;48.800;9.680;2023-03-26T00:54:04;6.50;99.90
15160;DHT22;7680;48.800;9.680;2023-03-26T00:56:38;6.40;99.90
15160;DHT22;7680;48.800;9.680;2023-03-26T00:59:11;6.40;99.90
15160;DHT22;7680;48.800;9.680;2023-03-26T01:01:44;6.40;99.90
15160;DHT22;7680;48.800;9.680;2023-03-26T01:04:26;6.40;99.90
15160;DHT22;7680;48.800;9.680;2023-03-26T01:07:07;6.40;99.90
15160;DHT22;7680;48.800;9.680;2023-03-26T01:09:43;6.40;99.90
15160;DHT22;7680;48.800;9.680;2023-03-26T01:12:23;6.40;99.90
15160;DHT22;7680;48.800;9.680;2023-03-26T01:15:00;6.40;99.90
15160;DHT22;7680;48.800;9.680;2023-03-26T01:17:34;6.30;99.90
15160;DHT22;7680;48.800;9.680;2023-03-26T01:20:14;6.50;99.90
15160;DHT22;7680;48.800;9.680;2023-03-26T01:22:54;6.40;99.90
15160;DHT22;7680;48.800;9.680;2023-03-26T01:25:37;6.30;99.90
15160;DHT22;7680;48.800;9.680;2023-03-26T01:28:13;6.30;99.90
15160;DHT22;7680;48.800;9.680;2023-03-26T01:30:54;6.30;99.90
15160;DHT22;7680;48.800;9.680;2023-03-26T01:33:34;6.40;99.90
15160;DHT22;7680;48.800;9.680;2023-03-26T01:36:14;6.60;99.90
15160;DHT22;7680;48.800;9.680;2023-03-26T01:38:58;6.60;99.90
15160;DHT22;7680;48.800;9.680;2023-03-26T01:41:41;6.60;99.90
15160;DHT22;7680;48.800;9.680;2023-03-26T01:44:21;6.60;99.90
15160;DHT22;7680;48.800;9.680;2023-03-26T01:46:58;6.50;99.90
15160;DHT22;7680;48.800;9.680;2023-03-26T01:49:32;6.50;99.90
15160;DHT22;7680;48.800;9.680;2023-03-26T01:52:09;6.50;99.90
15160;DHT22;7680;48.800;9.680;2023-03-26T01:54:45;6.40;99.90
15160;DHT22;7680;48.800;9.680;2023-03-26T01:57:27;6.50;99.90
15160;DHT22;7680;48.800;9.680;2023-03-26T02:00:13;6.50;99.90
15160;DHT22;7680;48.800;9.680;2023-03-26T02:03:00;6.50;99.90
15160;DHT22;7680;48.800;9.680;2023-03-26T02:05:52;6.80;99.90
15160;DHT22;7680;48.800;9.680;2023-03-26T02:08:30;6.80;99.90
15160;DHT22;7680;48.800;9.680;2023-03-26T02:11:10;6.80;99.90
15160;DHT22;7680;48.800;9.680;2023-03-26T02:13:46;6.80;99.90
15160;DHT22;7680;48.800;9.680;2023-03-26T02:16:19;6.80;99.90
15160;DHT22;7680;48.800;9.680;2023-03-26T02:18:53;6.70;99.90
15160;DHT22;7680;48.800;9.680;2023-03-26T02:21:29;6.60;99.90
15160;DHT22;7680;48.800;9.680;2023-03-26T02:24:05;6.50;99.90
15160;DHT22;7680;48.800;9.680;2023-03-26T02:26:38;6.50;99.90
15160;DHT22;7680;48.800;9.680;2023-03-26T02:29:13;6.40;99.90
15160;DHT22;7680;48.800;9.680;2023-03-26T02:31:50;6.40;99.90
15160;DHT22;7680;48.800;9.680;2023-03-26T02:34:24;6.30;99.90
15160;DHT22;7680;48.800;9.680;2023-03-26T02:36:57;6.10;99.90
15160;DHT22;7680;48.800;9.680;2023-03-26T02:39:30;6.00;99.90
15160;DHT22;7680;48.800;9.680;2023-03-26T02:42:03;6.00;99.90
15160;DHT22;7680;48.800;9.680;2023-03-26T02:44:38;6.00;99.90
15160;DHT22;7680;48.800;9.680;2023-03-26T02:47:11;5.90;99.90
15160;DHT22;7680;48.800;9.680;2023-03-26T02:49:44;5.90;99.90
15160;DHT22;7680;48.800;9.680;2023-03-26T02:52:17;5.90;99.90
15160;DHT22;7680;48.800;9.680;2023-03-26T02:54:51;5.90;99.90
15160;DHT22;7680;48.800;9.680;2023-03-26T02:57:24;5.90;99.90
15160;DHT22;7680;48.800;9.680;2023-03-26T02:59:59;5.80;99.90
15160;DHT22;7680;48.800;9.680;2023-03-26T03:02:39;5.70;99.90
15160;DHT22;7680;48.800;9.680;2023-03-26T03:05:15;5.60;99.90
15160;DHT22;7680;48.800;9.680;2023-03-26T03:07:49;5.60;99.90
15160;DHT22;7680;48.800;9.680;2023-03-26T03:10:23;5.70;99.90
15160;DHT22;7680;48.800;9.680;2023-03-26T03:12:57;5.70;99.90
15160;DHT22;7680;48.800;9.680;2023-03-26T03:15:32;5.60;99.90
15160;DHT22;7680;48.800;9.680;2023-03-26T03:18:05;5.60;99.90
15160;DHT22;7680;48.800;9.680;2023-03-26T03:20:39;5.70;99.90
15160;DHT22;7680;48.800;9.680;2023-03-26T03:23:12;5.70;99.90
15160;DHT22;7680;48.800;9.680;2023-03-26T03:25:45;5.70;99.90
15160;DHT22;7680;48.800;9.680;2023-03-26T03:28:19;5.70;99.90
15160;DHT22;7680;48.800;9.680;2023-03-26T03:30:54;5.80;99.90
15160;DHT22;7680;48.800;9.680;2023-03-26T03:33:29;5.70;99.90
15160;DHT22;7680;48.800;9.680;2023-03-26T03:36:03;5.70;99.90
15160;DHT22;7680;48.800;9.680;2023-03-26T03:38:50;5.60;99.90
15160;DHT22;7680;48.800;9.680;2023-03-26T03:41:23;5.70;99.90
15160;DHT22;7680;48.800;9.680;2023-03-26T03:43:56;5.70;99.90
15160;DHT22;7680;48.800;9.680;2023-03-26T03:46:33;5.60;99.90
15160;DHT22;7680;48.800;9.680;2023-03-26T03:49:06;5.60;99.90
15160;DHT22;7680;48.800;9.680;2023-03-26T03:51:39;5.60;99.90
15160;DHT22;7680;48.800;9.680;2023-03-26T03:54:13;5.70;99.90
15160;DHT22;7680;48.800;9.680;2023-03-26T03:56:46;5.70;99.90
15160;DHT22;7680;48.800;9.680;2023-03-26T03:59:20;5.60;99.90
15160;DHT22;7680;48.800;9.680;2023-03-26T04:01:54;5.50;99.90
15160;DHT22;7680;48.800;9.680;2023-03-26T04:04:27;5.40;99.90
15160;DHT22;7680;48.800;9.680;2023-03-26T04:07:00;5.40;99.90
15160;DHT22;7680;48.800;9.680;2023-03-26T04:09:33;5.50;99.90
15160;DHT22;7680;48.800;9.680;2023-03-26T04:12:06;5.60;99.90
15160;DHT22;7680;48.800;9.680;2023-03-26T04:14:40;5.70;99.90
15160;DHT22;7680;48.800;9.680;2023-03-26T04:17:14;5.70;99.90
15160;DHT22;7680;48.800;9.680;2023-03-26T04:19:47;5.70;99.90
15160;DHT22;7680;48.800;9.680;2023-03-26T04:22:23;5.70;99.90
15160;DHT22;7680;48.800;9.680;2023-03-26T04:25:08;5.70;99.90
15160;DHT22;7680;48.800;9.680;2023-03-26T04:27:41;5.70;99.90
15160;DHT22;7680;48.800;9.680;2023-03-26T04:30:17;5.70;99.90
15160;DHT22;7680;48.800;9.680;2023-03-26T04:32:53;5.80;99.90
15160;DHT22;7680;48.800;9.680;2023-03-26T04:35:31;5.80;99.90
15160;DHT22;7680;48.800;9.680;2023-03-26T04:38:06;5.80;99.90
15160;DHT22;7680;48.800;9.680;2023-03-26T04:40:39;5.80;99.90
15160;DHT22;7680;48.800;9.680;2023-03-26T04:43:14;5.80;99.90
15160;DHT22;7680;48.800;9.680;2023-03-26T04:45:49;5.80;99.90
15160;DHT22;7680;48.800;9.680;2023-03-26T04:48:24;5.80;99.90
15160;DHT22;7680;48.800;9.680;2023-03-26T04:50:57;5.80;99.90
15160;DHT22;7680;48.800;9.680;2023-03-26T04:53:33;5.80;99.90
15160;DHT22;7680;48.800;9.680;2023-03-26T04:56:12;5.80;99.90
15160;DHT22;7680;48.800;9.680;2023-03-26T04:58:49;5.80;99.90
15160;DHT22;7680;48.800;9.680;2023-03-26T05:01:22;5.80;99.90
15160;DHT22;7680;48.800;9.680;2023-03-26T05:04:00;5.80;99.90
15160;DHT22;7680;48.800;9.680;2023-03-26T05:06:33;5.70;99.90
15160;DHT22;7680;48.800;9.680;2023-03-26T05:09:08;5.70;99.90
15160;DHT22;7680;48.800;9.680;2023-03-26T05:11:42;5.80;99.90
15160;DHT22;7680;48.800;9.680;2023-03-26T05:14:15;5.80;99.90
15160;DHT22;7680;48.800;9.680;2023-03-26T05:16:49;5.90;99.90
15160;DHT22;7680;48.800;9.680;2023-03-26T05:19:25;5.90;99.90
15160;DHT22;7680;48.800;9.680;2023-03-26T05:21:58;5.80;99.90
15160;DHT22;7680;48.800;9.680;2023-03-26T05:24:31;5.80;99.90
15160;DHT22;7680;48.800;9.680;2023-03-26T05:27:04;5.90;99.90
15160;DHT22;7680;48.800;9.680;2023-03-26T05:29:38;5.90;99.90
15160;DHT22;7680;48.800;9.680;2023-03-26T05:32:11;5.90;99.90
15160;DHT22;7680;48.800;9.680;2023-03-26T05:34:46;5.90;99.90
15160;DHT22;7680;48.800;9.680;2023-03-26T05:37:19;5.80;99.90
15160;DHT22;7680;48.800;9.680;2023-03-26T05:39:55;5.90;99.90
15160;DHT22;7680;48.800;9.680;2023-03-26T05:42:28;5.90;99.90
15160;DHT22;7680;48.800;9.680;2023-03-26T05:45:02;5.90;99.90
15160;DHT22;7680;48.800;9.680;2023-03-26T05:47:36;5.90;99.90
15160;DHT22;7680;48.800;9.680;2023-03-26T05:50:11;5.90;99.90
15160;DHT22;7680;48.800;9.680;2023-03-26T05:52:44;5.90;99.90
15160;DHT22;7680;48.800;9.680;2023-03-26T05:55:17;5.90;99.90
15160;DHT22;7680;48.800;9.680;2023-03-26T05:57:50;5.90;99.90
15160;DHT22;7680;48.800;9.680;2023-03-26T06:00:24;6.00;99.90
15160;DHT22;7680;48.800;9.680;2023-03-26T06:02:57;6.10;99.90
15160;DHT22;7680;48.800;9.680;2023-03-26T06:05:32;6.00;99.90
15160;DHT22;7680;48.800;9.680;2023-03-26T06:08:07;6.00;99.90
15160;DHT22;7680;48.800;9.680;2023-03-26T06:10:41;6.00;99.90
15160;DHT22;7680;48.800;9.680;2023-03-26T06:13:15;6.10;99.90
15160;DHT22;7680;48.800;9.680;2023-03-26T06:15:50;6.10;99.90
15160;DHT22;7680;48.800;9.680;2023-03-26T06:18:24;6.10;99.90
15160;DHT22;7680;48.800;9.680;2023-03-26T06:20:59;6.20;99.90
15160;DHT22;7680;48.800;9.680;2023-03-26T06:23:32;6.20;99.90
15160;DHT22;7680;48.800;9.680;2023-03-26T06:26:05;6.20;99.90
15160;DHT22;7680;48.800;9.680;2023-03-26T06:28:38;6.20;99.90
15160;DHT22;7680;48.800;9.680;2023-03-26T06:31:11;6.20;99.90
15160;DHT22;7680;48.800;9.680;2023-03-26T06:33:45;6.30;99.90
15160;DHT22;7680;48.800;9.680;2023-03-26T06:36:20;6.30;99.90
15160;DHT22;7680;48.800;9.680;2023-03-26T06:38:53;6.40;99.90
15160;DHT22;7680;48.800;9.680;2023-03-26T06:41:26;6.40;99.90
15160;DHT22;7680;48.800;9.680;2023-03-26T06:44:00;6.40;99.90
15160;DHT22;7680;48.800;9.680;2023-03-26T06:46:33;6.40;99.90
15160;DHT22;7680;48.800;9.680;2023-03-26T06:49:07;6.50;99.90
15160;DHT22;7680;48.800;9.680;2023-03-26T06:51:41;6.50;99.90
15160;DHT22;7680;48.800;9.680;2023-03-26T06:54:14;6.40;99.90
15160;DHT22;7680;48.800;9.680;2023-03-26T06:56:47;6.40;99.90
15160;DHT22;7680;48.800;9.680;2023-03-26T06:59:21;6.50;99.90
15160;DHT22;7680;48.800;9.680;2023-03-26T07:01:54;6.50;99.90
15160;DHT22;7680;48.800;9.680;2023-03-26T07:04:27;6.40;99.90
15160;DHT22;7680;48.800;9.680;2023-03-26T07:07:01;6.40;99.90
15160;DHT22;7680;48.800;9.680;2023-03-26T07:09:34;6.40;99.90
15160;DHT22;7680;48.800;9.680;2023-03-26T07:12:08;6.50;99.90
15160;DHT22;7680;48.800;9.680;2023-03-26T07:14:41;6.50;99.90
15160;DHT22;7680;48.800;9.680;2023-03-26T07:17:14;6.60;99.90
15160;DHT22;7680;48.800;9.680;2023-03-26T07:19:47;6.70;99.90
15160;DHT22;7680;48.800;9.680;2023-03-26T07:22:23;6.60;99.90
15160;DHT22;7680;48.800;9.680;2023-03-26T07:24:57;6.60;99.90
15160;DHT22;7680;48.800;9.680;2023-03-26T07:27:36;6.50;99.90
15160;DHT22;7680;48.800;9.680;2023-03-26T07:30:22;6.60;99.90
15160;DHT22;7680;48.800;9.680;2023-03-26T07:33:00;6.60;99.90
15160;DHT22;7680;48.800;9.680;2023-03-26T07:35:38;6.90;99.90
15160;DHT22;7680;48.800;9.680;2023-03-26T07:38:29;6.90;99.90
15160;DHT22;7680;48.800;9.680;2023-03-26T07:41:14;7.20;99.90
15160;DHT22;7680;48.800;9.680;2023-03-26T07:44:03;7.30;99.90
15160;DHT22;7680;48.800;9.680;2023-03-26T07:46:43;7.40;99.90
15160;DHT22;7680;48.800;9.680;2023-03-26T07:49:19;7.40;99.90
15160;DHT22;7680;48.800;9.680;2023-03-26T07:51:53;7.50;99.90
15160;DHT22;7680;48.800;9.680;2023-03-26T07:54:28;7.40;99.90
15160;DHT22;7680;48.800;9.680;2023-03-26T07:57:04;7.30;99.90
15160;DHT22;7680;48.800;9.680;2023-03-26T07:59:45;7.40;99.90
15160;DHT22;7680;48.800;9.680;2023-03-26T08:02:34;7.40;99.90
15160;DHT22;7680;48.800;9.680;2023-03-26T08:05:26;7.40;99.90
15160;DHT22;7680;48.800;9.680;2023-03-26T08:08:07;7.40;99.90
15160;DHT22;7680;48.800;9.680;2023-03-26T08:11:01;7.40;99.90
15160;DHT22;7680;48.800;9.680;2023-03-26T08:13:52;7.40;99.90
15160;DHT22;7680;48.800;9.680;2023-03-26T08:16:32;7.40;99.90
15160;DHT22;7680;48.800;9.680;2023-03-26T08:19:18;7.40;99.90
15160;DHT22;7680;48.800;9.680;2023-03-26T08:22:07;7.40;99.90
15160;DHT22;7680;48.800;9.680;2023-03-26T08:24:54;7.30;99.90
15160;DHT22;7680;48.800;9.680;2023-03-26T08:28:09;7.40;99.90
15160;DHT22;7680;48.800;9.680;2023-03-26T08:30:48;7.40;99.90
15160;DHT22;7680;48.800;9.680;2023-03-26T08:33:26;7.40;99.90
15160;DHT22;7680;48.800;9.680;2023-03-26T08:36:00;7.40;99.90
15160;DHT22;7680;48.800;9.680;2023-03-26T08:38:33;7.40;99.90
15160;DHT22;7680;48.800;9.680;2023-03-26T08:41:34;7.40;99.90
15160;DHT22;7680;48.800;9.680;2023-03-26T08:52:03;7.20;99.90
15160;DHT22;7680;48.800;9.680;2023-03-26T08:55:07;7.20;99.90
15160;DHT22;7680;48.800;9.680;2023-03-26T09:02:01;7.30;99.90
15160;DHT22;7680;48.800;9.680;2023-03-26T09:05:19;7.30;99.90
15160;DHT22;7680;48.800;9.680;2023-03-26T09:08:33;7.20;99.90
15160;DHT22;7680;48.800;9.680;2023-03-26T09:15:15;7.30;99.90
15160;DHT22;7680;48.800;9.680;2023-03-26T09:22:12;7.40;99.90
15160;DHT22;7680;48.800;9.680;2023-03-26T09:25:22;7.50;99.90
15160;DHT22;7680;48.800;9.680;2023-03-26T09:31:49;7.80;99.90
15160;DHT22;7680;48.800;9.680;2023-03-26T09:34:41;7.90;99.90
15160;DHT22;7680;48.800;9.680;2023-03-26T09:37:27;8.20;99.90
15160;DHT22;7680;48.800;9.680;2023-03-26T09:40:34;8.50;99.90
15160;DHT22;7680;48.800;9.680;2023-03-26T09:43:34;8.60;99.90
15160;DHT22;7680;48.800;9.680;2023-03-26T09:46:25;8.70;99.90
15160;DHT22;7680;48.800;9.680;2023-03-26T09:49:12;8.70;99.90
15160;DHT22;7680;48.800;9.680;2023-03-26T09:55:37;9.00;99.90
15160;DHT22;7680;48.800;9.680;2023-03-26T09:58:35;9.10;99.90
15160;DHT22;7680;48.800;9.680;2023-03-26T10:01:18;9.30;99.90
15160;DHT22;7680;48.800;9.680;2023-03-26T10:03:58;9.50;99.90
15160;DHT22;7680;48.800;9.680;2023-03-26T10:07:02;9.60;99.90
15160;DHT22;7680;48.800;9.680;2023-03-26T10:09:44;9.80;99.90
15160;DHT22;7680;48.800;9.680;2023-03-26T10:12:34;9.80;99.90
15160;DHT22;7680;48.800;9.680;2023-03-26T10:15:23;10.00;99.90
15160;DHT22;7680;48.800;9.680;2023-03-26T10:18:11;10.20;99.90
15160;DHT22;7680;48.800;9.680;2023-03-26T10:21:05;10.10;99.90
15160;DHT22;7680;48.800;9.680;2023-03-26T10:24:00;10.20;99.90
15160;DHT22;7680;48.800;9.680;2023-03-26T10:26:47;10.40;99.90
15160;DHT22;7680;48.800;9.680;2023-03-26T10:30:11;10.50;99.90
15160;DHT22;7680;48.800;9.680;2023-03-26T10:33:03;10.30;99.90
15160;DHT22;7680;48.800;9.680;2023-03-26T10:35:55;10.60;99.90
15160;DHT22;7680;48.800;9.680;2023-03-26T10:42:20;10.70;99.90
15160;DHT22;7680;48.800;9.680;2023-03-26T10:45:25;10.70;99.90
15160;DHT22;7680;48.800;9.680;2023-03-26T10:48:18;10.80;99.90
15160;DHT22;7680;48.800;9.680;2023-03-26T10:51:05;10.80;99.90
15160;DHT22;7680;48.800;9.680;2023-03-26T10:53:52;10.80;99.90
15160;DHT22;7680;48.800;9.680;2023-03-26T10:56:28;11.00;99.90
15160;DHT22;7680;48.800;9.680;2023-03-26T10:59:09;11.30;99.90
15160;DHT22;7680;48.800;9.680;2023-03-26T11:01:49;11.50;99.90
15160;DHT22;7680;48.800;9.680;2023-03-26T11:04:36;11.70;99.90
15160;DHT22;7680;48.800;9.680;2023-03-26T11:07:21;11.80;99.90
15160;DHT22;7680;48.800;9.680;2023-03-26T11:10:01;11.90;99.90
15160;DHT22;7680;48.800;9.680;2023-03-26T11:12:42;12.00;99.90
15160;DHT22;7680;48.800;9.680;2023-03-26T11:15:23;12.30;99.90
15160;DHT22;7680;48.800;9.680;2023-03-26T11:18:07;12.40;99.90
15160;DHT22;7680;48.800;9.680;2023-03-26T11:20:48;12.30;99.90
15160;DHT22;7680;48.800;9.680;2023-03-26T11:23:33;12.20;99.90
15160;DHT22;7680;48.800;9.680;2023-03-26T11:26:13;12.00;99.90
15160;DHT22;7680;48.800;9.680;2023-03-26T11:29:00;11.80;99.90
15160;DHT22;7680;48.800;9.680;2023-03-26T11:32:04;11.70;99.90
15160;DHT22;7680;48.800;9.680;2023-03-26T11:34:41;11.70;99.90
15160;DHT22;7680;48.800;9.680;2023-03-26T11:37:22;11.70;99.90
15160;DHT22;7680;48.800;9.680;2023-03-26T11:40:02;12.00;99.90
15160;DHT22;7680;48.800;9.680;2023-03-26T11:42:40;12.30;99.90
15160;DHT22;7680;48.800;9.680;2023-03-26T11:45:16;12.40;99.90
15160;DHT22;7680;48.800;9.680;2023-03-26T11:47:55;12.70;99.90
15160;DHT22;7680;48.800;9.680;2023-03-26T11:50:36;12.70;99.90
15160;DHT22;7680;48.800;9.680;2023-03-26T11:53:12;12.80;99.90
15160;DHT22;7680;48.800;9.680;2023-03-26T11:55:56;12.80;99.90
15160;DHT22;7680;48.800;9.680;2023-03-26T11:58:34;12.90;99.90
15160;DHT22;7680;48.800;9.680;2023-03-26T12:01:16;13.10;99.90
15160;DHT22;7680;48.800;9.680;2023-03-26T12:03:57;13.10;99.90
15160;DHT22;7680;48.800;9.680;2023-03-26T12:06:35;13.10;99.90
15160;DHT22;7680;48.800;9.680;2023-03-26T12:09:15;13.20;99.90
15160;DHT22;7680;48.800;9.680;2023-03-26T12:11:52;13.30;99.90
15160;DHT22;7680;48.800;9.680;2023-03-26T12:14:29;13.10;99.90
15160;DHT22;7680;48.800;9.680;2023-03-26T12:17:06;13.00;99.90
15160;DHT22;7680;48.800;9.680;2023-03-26T12:19:44;12.90;99.90
15160;DHT22;7680;48.800;9.680;2023-03-26T12:22:35;12.80;99.90
15160;DHT22;7680;48.800;9.680;2023-03-26T12:25:16;13.00;99.90
15160;DHT22;7680;48.800;9.680;2023-03-26T12:27:56;13.20;99.90
15160;DHT22;7680;48.800;9.680;2023-03-26T12:30:34;13.30;99.90
15160;DHT22;7680;48.800;9.680;2023-03-26T12:33:14;13.30;99.90
15160;DHT22;7680;48.800;9.680;2023-03-26T12:35:53;13.20;99.90
15160;DHT22;7680;48.800;9.680;2023-03-26T12:38:30;13.00;99.90
15160;DHT22;7680;48.800;9.680;2023-03-26T12:41:07;13.10;99.90
15160;DHT22;7680;48.800;9.680;2023-03-26T12:44:21;13.00;99.90
15160;DHT22;7680;48.800;9.680;2023-03-26T12:47:19;13.00;99.90
15160;DHT22;7680;48.800;9.680;2023-03-26T12:50:13;12.90;99.90
15160;DHT22;7680;48.800;9.680;2023-03-26T12:52:59;12.70;99.90
15160;DHT22;7680;48.800;9.680;2023-03-26T12:55:41;12.40;99.90
15160;DHT22;7680;48.800;9.680;2023-03-26T12:58:36;12.10;99.90
15160;DHT22;7680;48.800;9.680;2023-03-26T13:01:30;11.80;99.90
15160;DHT22;7680;48.800;9.680;2023-03-26T13:04:19;11.50;99.90
15160;DHT22;7680;48.800;9.680;2023-03-26T13:07:15;11.10;99.90
15160;DHT22;7680;48.800;9.680;2023-03-26T13:13:09;10.60;99.90
15160;DHT22;7680;48.800;9.680;2023-03-26T13:15:51;10.50;99.90
15160;DHT22;7680;48.800;9.680;2023-03-26T13:18:32;10.50;99.90
15160;DHT22;7680;48.800;9.680;2023-03-26T13:21:20;10.50;99.90
15160;DHT22;7680;48.800;9.680;2023-03-26T13:24:06;10.60;99.90
15160;DHT22;7680;48.800;9.680;2023-03-26T13:26:57;10.80;99.90
15160;DHT22;7680;48.800;9.680;2023-03-26T13:29:41;10.90;99.90
15160;DHT22;7680;48.800;9.680;2023-03-26T13:32:26;11.00;99.90
15160;DHT22;7680;48.800;9.680;2023-03-26T13:35:17;11.20;99.90
15160;DHT22;7680;48.800;9.680;2023-03-26T13:38:01;11.30;99.90
15160;DHT22;7680;48.800;9.680;2023-03-26T13:40:46;11.50;99.90
15160;DHT22;7680;48.800;9.680;2023-03-26T13:43:34;11.60;99.90
15160;DHT22;7680;48.800;9.680;2023-03-26T13:46:20;11.80;99.90
15160;DHT22;7680;48.800;9.680;2023-03-26T13:49:01;12.00;99.90
15160;DHT22;7680;48.800;9.680;2023-03-26T13:51:39;12.10;99.90
15160;DHT22;7680;48.800;9.680;2023-03-26T13:54:18;12.30;99.90
15160;DHT22;7680;48.800;9.680;2023-03-26T13:56:59;12.40;99.90
15160;DHT22;7680;48.800;9.680;2023-03-26T13:59:42;12.30;99.90
15160;DHT22;7680;48.800;9.680;2023-03-26T14:02:22;12.30;99.90
15160;DHT22;7680;48.800;9.680;2023-03-26T14:05:04;12.30;99.90
15160;DHT22;7680;48.800;9.680;2023-03-26T14:07:42;12.30;99.90
15160;DHT22;7680;48.800;9.680;2023-03-26T14:10:19;12.30;99.90
15160;DHT22;7680;48.800;9.680;2023-03-26T14:12:57;12.30;99.90
15160;DHT22;7680;48.800;9.680;2023-03-26T14:15:36;12.20;99.90
15160;DHT22;7680;48.800;9.680;2023-03-26T14:18:23;12.30;99.90
15160;DHT22;7680;48.800;9.680;2023-03-26T14:21:17;12.30;99.90
15160;DHT22;7680;48.800;9.680;2023-03-26T14:24:20;12.40;99.90
15160;DHT22;7680;48.800;9.680;2023-03-26T14:27:15;12.30;99.90
15160;DHT22;7680;48.800;9.680;2023-03-26T14:33:24;12.30;99.90
15160;DHT22;7680;48.800;9.680;2023-03-26T14:36:12;12.40;99.90
15160;DHT22;7680;48.800;9.680;2023-03-26T14:39:20;12.40;99.90
15160;DHT22;7680;48.800;9.680;2023-03-26T14:42:02;12.50;99.90
15160;DHT22;7680;48.800;9.680;2023-03-26T14:48:07;12.50;99.90
15160;DHT22;7680;48.800;9.680;2023-03-26T14:51:06;12.40;99.90
15160;DHT22;7680;48.800;9.680;2023-03-26T14:53:47;12.40;99.90
15160;DHT22;7680;48.800;9.680;2023-03-26T15:10:37;12.20;99.90
15160;DHT22;7680;48.800;9.680;2023-03-26T15:14:00;12.10;99.90
15160;DHT22;7680;48.800;9.680;2023-03-26T15:20:58;11.40;99.90
15160;DHT22;7680;48.800;9.680;2023-03-26T15:24:05;11.00;99.90
15160;DHT22;7680;48.800;9.680;2023-03-26T15:27:23;10.80;99.90
15160;DHT22;7680;48.800;9.680;2023-03-26T15:30:59;10.20;99.90
15160;DHT22;7680;48.800;9.680;2023-03-26T15:34:05;9.90;99.90
15160;DHT22;7680;48.800;9.680;2023-03-26T15:40:41;9.30;99.90
15160;DHT22;7680;48.800;9.680;2023-03-26T15:43:19;9.10;99.90
15160;DHT22;7680;48.800;9.680;2023-03-26T15:46:21;9.00;99.90
15160;DHT22;7680;48.800;9.680;2023-03-26T15:49:04;8.90;99.90
15160;DHT22;7680;48.800;9.680;2023-03-26T15:51:44;8.90;99.90
15160;DHT22;7680;48.800;9.680;2023-03-26T15:54:28;8.90;99.90
15160;DHT22;7680;48.800;9.680;2023-03-26T15:57:12;9.00;99.90
15160;DHT22;7680;48.800;9.680;2023-03-26T15:59:59;9.00;99.90
15160;DHT22;7680;48.800;9.680;2023-03-26T16:02:52;9.00;99.90
15160;DHT22;7680;48.800;9.680;2023-03-26T16:05:38;9.00;99.90
15160;DHT22;7680;48.800;9.680;2023-03-26T16:08:23;9.10;99.90
15160;DHT22;7680;48.800;9.680;2023-03-26T16:11:05;9.00;99.90
15160;DHT22;7680;48.800;9.680;2023-03-26T16:13:48;9.00;99.90
15160;DHT22;7680;48.800;9.680;2023-03-26T16:16:23;9.10;99.90
15160;DHT22;7680;48.800;9.680;2023-03-26T16:19:45;8.90;99.90
15160;DHT22;7680;48.800;9.680;2023-03-26T16:22:38;8.80;99.90
15160;DHT22;7680;48.800;9.680;2023-03-26T16:25:26;8.70;99.90
15160;DHT22;7680;48.800;9.680;2023-03-26T16:28:30;8.70;99.90
15160;DHT22;7680;48.800;9.680;2023-03-26T16:31:29;8.60;99.90
15160;DHT22;7680;48.800;9.680;2023-03-26T16:34:26;8.50;99.90
15160;DHT22;7680;48.800;9.680;2023-03-26T16:37:04;8.50;99.90
15160;DHT22;7680;48.800;9.680;2023-03-26T16:39:51;8.40;99.90
15160;DHT22;7680;48.800;9.680;2023-03-26T16:42:30;8.40;99.90
15160;DHT22;7680;48.800;9.680;2023-03-26T16:45:17;8.40;99.90
15160;DHT22;7680;48.800;9.680;2023-03-26T16:47:59;8.30;99.90
15160;DHT22;7680;48.800;9.680;2023-03-26T16:50:42;8.30;99.90
15160;DHT22;7680;48.800;9.680;2023-03-26T16:53:34;8.30;99.90
15160;DHT22;7680;48.800;9.680;2023-03-26T16:56:15;8.40;99.90
15160;DHT22;7680;48.800;9.680;2023-03-26T16:59:00;8.40;99.90
15160;DHT22;7680;48.800;9.680;2023-03-26T17:01:45;8.40;99.90
15160;DHT22;7680;48.800;9.680;2023-03-26T17:04:26;8.40;99.90
15160;DHT22;7680;48.800;9.680;2023-03-26T17:07:08;8.30;99.90
15160;DHT22;7680;48.800;9.680;2023-03-26T17:10:01;8.30;99.90
15160;DHT22;7680;48.800;9.680;2023-03-26T17:12:40;8.30;99.90
15160;DHT22;7680;48.800;9.680;2023-03-26T17:15:25;8.20;99.90
15160;DHT22;7680;48.800;9.680;2023-03-26T17:18:27;8.10;99.90
15160;DHT22;7680;48.800;9.680;2023-03-26T17:21:11;8.10;99.90
15160;DHT22;7680;48.800;9.680;2023-03-26T17:23:58;8.00;99.90
15160;DHT22;7680;48.800;9.680;2023-03-26T17:26:45;7.90;99.90
15160;DHT22;7680;48.800;9.680;2023-03-26T17:29:30;7.90;99.90
15160;DHT22;7680;48.800;9.680;2023-03-26T17:32:14;7.90;99.90
15160;DHT22;7680;48.800;9.680;2023-03-26T17:34:58;7.90;99.90
15160;DHT22;7680;48.800;9.680;2023-03-26T17:37:42;8.00;99.90
15160;DHT22;7680;48.800;9.680;2023-03-26T17:40:45;7.90;99.90
15160;DHT22;7680;48.800;9.680;2023-03-26T17:43:38;7.90;99.90
15160;DHT22;7680;48.800;9.680;2023-03-26T17:46:24;7.70;99.90
15160;DHT22;7680;48.800;9.680;2023-03-26T17:49:07;7.70;99.90
15160;DHT22;7680;48.800;9.680;2023-03-26T17:51:51;7.60;99.90
15160;DHT22;7680;48.800;9.680;2023-03-26T17:54:31;7.60;99.90
15160;DHT22;7680;48.800;9.680;2023-03-26T17:57:11;7.50;99.90
15160;DHT22;7680;48.800;9.680;2023-03-26T17:59:48;7.50;99.90
15160;DHT22;7680;48.800;9.680;2023-03-26T18:02:31;7.50;99.90
15160;DHT22;7680;48.800;9.680;2023-03-26T18:05:09;7.50;99.90
15160;DHT22;7680;48.800;9.680;2023-03-26T18:14:45;7.40;99.90
15160;DHT22;7680;48.800;9.680;2023-03-26T18:17:30;7.40;99.90
15160;DHT22;7680;48.800;9.680;2023-03-26T18:20:19;7.40;99.90
15160;DHT22;7680;48.800;9.680;2023-03-26T18:22:55;7.40;99.90
15160;DHT22;7680;48.800;9.680;2023-03-26T18:25:30;7.40;99.90
15160;DHT22;7680;48.800;9.680;2023-03-26T18:28:04;7.40;99.90
15160;DHT22;7680;48.800;9.680;2023-03-26T18:30:45;7.30;99.90
15160;DHT22;7680;48.800;9.680;2023-03-26T18:33:20;7.30;99.90
15160;DHT22;7680;48.800;9.680;2023-03-26T18:35:54;7.30;99.90
15160;DHT22;7680;48.800;9.680;2023-03-26T18:38:30;7.30;99.90
15160;DHT22;7680;48.800;9.680;2023-03-26T18:41:16;7.30;99.90